Terminal Aerodrome Forecast
Issued by NWS Jackson, MS

Home | Current Version | Previous Version | Text Only | Print | Product List | Glossary On
Versions: 1 2 3 4 5 6 7 8 9 10 11 12
000
FTUS44 KJAN 212300
TAFGWO
TAF
KGWO 212320Z 2200/2224 18003KT P6SM SKC
     FM221100 00000KT 5SM BR SKC
     FM221300 24005KT P6SM SCT050=

USA.gov is the U.S. government's official web portal to all federal, state and local government web resources and services.